sensor_id;sensor_type;location;lat;lon;timestamp;temperature;humidity
39401;DHT22;54391;50.000;7.360;2023-03-05T00:02:19;2.80;68.10
39401;DHT22;54391;50.000;7.360;2023-03-05T00:04:46;2.80;67.70
39401;DHT22;54391;50.000;7.360;2023-03-05T00:07:13;2.80;66.70
39401;DHT22;54391;50.000;7.360;2023-03-05T00:09:40;2.80;66.70
39401;DHT22;54391;50.000;7.360;2023-03-05T00:12:08;2.70;68.10
39401;DHT22;54391;50.000;7.360;2023-03-05T00:14:35;2.70;68.70
39401;DHT22;54391;50.000;7.360;2023-03-05T00:17:02;2.60;70.00
39401;DHT22;54391;50.000;7.360;2023-03-05T00:19:30;2.60;68.40
39401;DHT22;54391;50.000;7.360;2023-03-05T00:21:57;2.70;70.10
39401;DHT22;54391;50.000;7.360;2023-03-05T00:24:24;2.60;70.10
39401;DHT22;54391;50.000;7.360;2023-03-05T00:26:51;2.60;67.40
39401;DHT22;54391;50.000;7.360;2023-03-05T00:29:19;2.60;67.80
39401;DHT22;54391;50.000;7.360;2023-03-05T00:31:47;2.60;68.90
39401;DHT22;54391;50.000;7.360;2023-03-05T00:34:17;2.60;69.40
39401;DHT22;54391;50.000;7.360;2023-03-05T00:36:47;2.60;69.10
39401;DHT22;54391;50.000;7.360;2023-03-05T00:39:19;2.60;66.50
39401;DHT22;54391;50.000;7.360;2023-03-05T00:41:47;2.70;67.70
39401;DHT22;54391;50.000;7.360;2023-03-05T00:44:14;2.60;66.20
39401;DHT22;54391;50.000;7.360;2023-03-05T00:46:41;2.60;64.30
39401;DHT22;54391;50.000;7.360;2023-03-05T00:49:08;2.50;63.50
39401;DHT22;54391;50.000;7.360;2023-03-05T00:51:35;2.50;64.40
39401;DHT22;54391;50.000;7.360;2023-03-05T00:54:04;2.50;65.00
39401;DHT22;54391;50.000;7.360;2023-03-05T00:56:32;2.50;64.00
39401;DHT22;54391;50.000;7.360;2023-03-05T00:58:59;2.40;60.40
39401;DHT22;54391;50.000;7.360;2023-03-05T01:01:27;2.40;61.20
39401;DHT22;54391;50.000;7.360;2023-03-05T01:03:54;2.40;60.70
39401;DHT22;54391;50.000;7.360;2023-03-05T01:06:23;2.40;61.60
39401;DHT22;54391;50.000;7.360;2023-03-05T01:08:50;2.40;62.20
39401;DHT22;54391;50.000;7.360;2023-03-05T01:11:18;2.40;62.70
39401;DHT22;54391;50.000;7.360;2023-03-05T01:13:45;2.40;62.60
39401;DHT22;54391;50.000;7.360;2023-03-05T01:16:12;2.40;62.30
39401;DHT22;54391;50.000;7.360;2023-03-05T01:18:40;2.40;62.10
39401;DHT22;54391;50.000;7.360;2023-03-05T01:21:07;2.40;60.60
39401;DHT22;54391;50.000;7.360;2023-03-05T01:23:34;2.40;61.80
39401;DHT22;54391;50.000;7.360;2023-03-05T01:26:03;2.40;61.40
39401;DHT22;54391;50.000;7.360;2023-03-05T01:28:31;2.30;62.00
39401;DHT22;54391;50.000;7.360;2023-03-05T01:30:58;2.30;61.90
39401;DHT22;54391;50.000;7.360;2023-03-05T01:33:25;2.30;63.10
39401;DHT22;54391;50.000;7.360;2023-03-05T01:35:52;2.30;61.60
39401;DHT22;54391;50.000;7.360;2023-03-05T01:38:20;2.30;62.30
39401;DHT22;54391;50.000;7.360;2023-03-05T01:40:47;2.30;61.50
39401;DHT22;54391;50.000;7.360;2023-03-05T01:43:23;2.30;61.10
39401;DHT22;54391;50.000;7.360;2023-03-05T01:46:24;2.20;59.70
39401;DHT22;54391;50.000;7.360;2023-03-05T01:48:55;4.10;61.30
39401;DHT22;54391;50.000;7.360;2023-03-05T01:51:27;2.20;59.50
39401;DHT22;54391;50.000;7.360;2023-03-05T01:53:56;2.20;57.70
39401;DHT22;54391;50.000;7.360;2023-03-05T01:56:26;2.10;58.10
39401;DHT22;54391;50.000;7.360;2023-03-05T01:58:59;2.10;57.90
39401;DHT22;54391;50.000;7.360;2023-03-05T02:01:38;2.20;57.40
39401;DHT22;54391;50.000;7.360;2023-03-05T02:04:07;2.10;56.80
39401;DHT22;54391;50.000;7.360;2023-03-05T02:06:36;2.10;57.40
39401;DHT22;54391;50.000;7.360;2023-03-05T02:09:04;2.10;57.10
39401;DHT22;54391;50.000;7.360;2023-03-05T02:11:31;2.10;58.30
39401;DHT22;54391;50.000;7.360;2023-03-05T02:13:59;2.20;57.30
39401;DHT22;54391;50.000;7.360;2023-03-05T02:16:28;2.20;56.60
39401;DHT22;54391;50.000;7.360;2023-03-05T02:19:02;2.20;54.90
39401;DHT22;54391;50.000;7.360;2023-03-05T02:21:38;2.20;55.20
39401;DHT22;54391;50.000;7.360;2023-03-05T02:24:06;2.20;55.90
39401;DHT22;54391;50.000;7.360;2023-03-05T02:26:33;2.10;55.00
39401;DHT22;54391;50.000;7.360;2023-03-05T02:29:02;2.10;54.90
39401;DHT22;54391;50.000;7.360;2023-03-05T02:31:31;2.10;55.70
39401;DHT22;54391;50.000;7.360;2023-03-05T02:33:59;2.20;55.30
39401;DHT22;54391;50.000;7.360;2023-03-05T02:36:28;2.20;55.30
39401;DHT22;54391;50.000;7.360;2023-03-05T02:41:30;2.00;53.70
39401;DHT22;54391;50.000;7.360;2023-03-05T03:03:40;1.90;54.70
39401;DHT22;54391;50.000;7.360;2023-03-05T03:13:33;1.90;54.00
39401;DHT22;54391;50.000;7.360;2023-03-05T03:16:05;2.00;54.00
39401;DHT22;54391;50.000;7.360;2023-03-05T03:18:32;1.90;54.50
39401;DHT22;54391;50.000;7.360;2023-03-05T03:21:00;1.90;52.40
39401;DHT22;54391;50.000;7.360;2023-03-05T03:23:27;1.90;54.50
39401;DHT22;54391;50.000;7.360;2023-03-05T03:25:55;1.90;53.50
39401;DHT22;54391;50.000;7.360;2023-03-05T03:28:22;1.90;53.20
39401;DHT22;54391;50.000;7.360;2023-03-05T03:30:50;1.90;53.30
39401;DHT22;54391;50.000;7.360;2023-03-05T03:33:17;1.90;53.40
39401;DHT22;54391;50.000;7.360;2023-03-05T03:35:45;1.90;52.80
39401;DHT22;54391;50.000;7.360;2023-03-05T03:38:12;2.00;52.50
39401;DHT22;54391;50.000;7.360;2023-03-05T03:40:39;1.90;51.80
39401;DHT22;54391;50.000;7.360;2023-03-05T03:43:07;1.90;52.10
39401;DHT22;54391;50.000;7.360;2023-03-05T03:45:38;1.90;52.50
39401;DHT22;54391;50.000;7.360;2023-03-05T03:48:07;1.90;52.10
39401;DHT22;54391;50.000;7.360;2023-03-05T03:50:37;1.80;52.00
39401;DHT22;54391;50.000;7.360;2023-03-05T03:53:05;1.80;53.00
39401;DHT22;54391;50.000;7.360;2023-03-05T03:55:32;1.80;53.70
39401;DHT22;54391;50.000;7.360;2023-03-05T03:57:59;1.90;53.60
39401;DHT22;54391;50.000;7.360;2023-03-05T04:00:27;1.90;52.00
39401;DHT22;54391;50.000;7.360;2023-03-05T04:02:54;1.90;53.10
39401;DHT22;54391;50.000;7.360;2023-03-05T04:05:23;1.80;52.80
39401;DHT22;54391;50.000;7.360;2023-03-05T04:07:50;1.80;53.60
39401;DHT22;54391;50.000;7.360;2023-03-05T04:10:17;1.60;53.10
39401;DHT22;54391;50.000;7.360;2023-03-05T04:12:44;1.70;53.00
39401;DHT22;54391;50.000;7.360;2023-03-05T04:15:12;1.70;53.50
39401;DHT22;54391;50.000;7.360;2023-03-05T04:17:39;1.70;54.60
39401;DHT22;54391;50.000;7.360;2023-03-05T04:20:06;1.70;53.10
39401;DHT22;54391;50.000;7.360;2023-03-05T04:22:36;1.70;53.00
39401;DHT22;54391;50.000;7.360;2023-03-05T04:25:04;1.70;53.20
39401;DHT22;54391;50.000;7.360;2023-03-05T04:27:33;1.80;51.50
39401;DHT22;54391;50.000;7.360;2023-03-05T04:30:00;1.70;51.20
39401;DHT22;54391;50.000;7.360;2023-03-05T04:32:28;1.70;51.90
39401;DHT22;54391;50.000;7.360;2023-03-05T04:34:56;1.70;50.30
39401;DHT22;54391;50.000;7.360;2023-03-05T04:37:23;1.70;52.10
39401;DHT22;54391;50.000;7.360;2023-03-05T04:39:52;1.80;49.50
39401;DHT22;54391;50.000;7.360;2023-03-05T04:42:19;1.70;50.10
39401;DHT22;54391;50.000;7.360;2023-03-05T04:44:47;1.70;50.10
39401;DHT22;54391;50.000;7.360;2023-03-05T04:47:14;1.70;50.30
39401;DHT22;54391;50.000;7.360;2023-03-05T04:49:41;1.70;49.50
39401;DHT22;54391;50.000;7.360;2023-03-05T04:52:10;1.70;49.70
39401;DHT22;54391;50.000;7.360;2023-03-05T04:54:37;1.70;49.60
39401;DHT22;54391;50.000;7.360;2023-03-05T04:57:06;1.70;49.50
39401;DHT22;54391;50.000;7.360;2023-03-05T04:59:33;1.70;47.40
39401;DHT22;54391;50.000;7.360;2023-03-05T05:02:00;1.60;47.40
39401;DHT22;54391;50.000;7.360;2023-03-05T05:04:27;1.70;49.10
39401;DHT22;54391;50.000;7.360;2023-03-05T05:06:54;1.70;48.10
39401;DHT22;54391;50.000;7.360;2023-03-05T05:09:22;1.60;47.20
39401;DHT22;54391;50.000;7.360;2023-03-05T05:11:49;1.70;48.30
39401;DHT22;54391;50.000;7.360;2023-03-05T05:14:18;1.70;48.00
39401;DHT22;54391;50.000;7.360;2023-03-05T05:16:45;1.70;46.20
39401;DHT22;54391;50.000;7.360;2023-03-05T05:19:12;1.60;45.60
39401;DHT22;54391;50.000;7.360;2023-03-05T05:21:39;1.60;46.40
39401;DHT22;54391;50.000;7.360;2023-03-05T05:24:07;1.60;46.10
39401;DHT22;54391;50.000;7.360;2023-03-05T05:26:34;1.60;45.30
39401;DHT22;54391;50.000;7.360;2023-03-05T05:29:01;1.60;44.70
39401;DHT22;54391;50.000;7.360;2023-03-05T05:31:30;1.60;45.10
39401;DHT22;54391;50.000;7.360;2023-03-05T05:33:57;1.60;44.40
39401;DHT22;54391;50.000;7.360;2023-03-05T05:36:24;1.60;43.40
39401;DHT22;54391;50.000;7.360;2023-03-05T05:38:51;1.60;43.10
39401;DHT22;54391;50.000;7.360;2023-03-05T05:41:19;1.50;40.50
39401;DHT22;54391;50.000;7.360;2023-03-05T05:43:46;1.50;40.40
39401;DHT22;54391;50.000;7.360;2023-03-05T05:46:15;1.60;41.40
39401;DHT22;54391;50.000;7.360;2023-03-05T05:48:44;1.60;38.40
39401;DHT22;54391;50.000;7.360;2023-03-05T05:51:13;1.50;37.70
39401;DHT22;54391;50.000;7.360;2023-03-05T05:53:41;1.50;35.60
39401;DHT22;54391;50.000;7.360;2023-03-05T05:56:09;1.50;35.00
39401;DHT22;54391;50.000;7.360;2023-03-05T05:58:38;1.50;34.10
39401;DHT22;54391;50.000;7.360;2023-03-05T06:01:11;1.50;32.60
39401;DHT22;54391;50.000;7.360;2023-03-05T06:03:38;1.50;33.70
39401;DHT22;54391;50.000;7.360;2023-03-05T06:06:09;1.50;32.40
39401;DHT22;54391;50.000;7.360;2023-03-05T06:08:37;1.60;30.40
39401;DHT22;54391;50.000;7.360;2023-03-05T06:11:04;1.50;30.60
39401;DHT22;54391;50.000;7.360;2023-03-05T06:13:32;1.50;32.90
39401;DHT22;54391;50.000;7.360;2023-03-05T06:16:01;1.50;31.20
39401;DHT22;54391;50.000;7.360;2023-03-05T06:18:29;1.50;30.80
39401;DHT22;54391;50.000;7.360;2023-03-05T06:20:57;1.50;28.80
39401;DHT22;54391;50.000;7.360;2023-03-05T06:23:27;1.50;29.30
39401;DHT22;54391;50.000;7.360;2023-03-05T06:25:57;1.50;29.20
39401;DHT22;54391;50.000;7.360;2023-03-05T06:28:24;1.50;28.00
39401;DHT22;54391;50.000;7.360;2023-03-05T06:30:58;1.50;27.80
39401;DHT22;54391;50.000;7.360;2023-03-05T06:33:28;1.50;27.20
39401;DHT22;54391;50.000;7.360;2023-03-05T06:35:55;1.50;27.30
39401;DHT22;54391;50.000;7.360;2023-03-05T06:38:23;1.50;26.30
39401;DHT22;54391;50.000;7.360;2023-03-05T06:40:52;1.40;28.40
39401;DHT22;54391;50.000;7.360;2023-03-05T06:43:19;1.50;29.00
39401;DHT22;54391;50.000;7.360;2023-03-05T06:45:46;1.50;29.10
39401;DHT22;54391;50.000;7.360;2023-03-05T06:48:13;1.50;28.90
39401;DHT22;54391;50.000;7.360;2023-03-05T06:50:40;1.50;29.20
39401;DHT22;54391;50.000;7.360;2023-03-05T06:53:07;1.50;29.30
39401;DHT22;54391;50.000;7.360;2023-03-05T06:55:35;1.50;28.00
39401;DHT22;54391;50.000;7.360;2023-03-05T06:58:06;1.50;28.50
39401;DHT22;54391;50.000;7.360;2023-03-05T07:00:34;1.40;28.30
39401;DHT22;54391;50.000;7.360;2023-03-05T07:03:01;1.40;29.00
39401;DHT22;54391;50.000;7.360;2023-03-05T07:05:28;1.40;28.90
39401;DHT22;54391;50.000;7.360;2023-03-05T07:07:55;1.50;29.60
39401;DHT22;54391;50.000;7.360;2023-03-05T07:10:22;1.80;25.50
39401;DHT22;54391;50.000;7.360;2023-03-05T07:12:49;1.90;25.90
39401;DHT22;54391;50.000;7.360;2023-03-05T07:15:17;1.90;25.10
39401;DHT22;54391;50.000;7.360;2023-03-05T07:17:45;1.90;24.60
39401;DHT22;54391;50.000;7.360;2023-03-05T07:20:12;2.00;19.20
39401;DHT22;54391;50.000;7.360;2023-03-05T07:22:39;2.00;18.30
39401;DHT22;54391;50.000;7.360;2023-03-05T07:25:07;1.90;18.80
39401;DHT22;54391;50.000;7.360;2023-03-05T07:27:35;2.00;18.10
39401;DHT22;54391;50.000;7.360;2023-03-05T07:30:04;1.90;19.10
39401;DHT22;54391;50.000;7.360;2023-03-05T07:32:34;1.90;19.60
39401;DHT22;54391;50.000;7.360;2023-03-05T07:35:01;1.90;20.60
39401;DHT22;54391;50.000;7.360;2023-03-05T07:37:29;1.90;22.00
39401;DHT22;54391;50.000;7.360;2023-03-05T07:39:56;1.90;22.60
39401;DHT22;54391;50.000;7.360;2023-03-05T07:42:24;1.90;23.80
39401;DHT22;54391;50.000;7.360;2023-03-05T07:45:06;1.90;24.50
39401;DHT22;54391;50.000;7.360;2023-03-05T07:47:35;1.90;24.60
39401;DHT22;54391;50.000;7.360;2023-03-05T07:50:03;1.90;23.10
39401;DHT22;54391;50.000;7.360;2023-03-05T07:52:30;2.00;23.40
39401;DHT22;54391;50.000;7.360;2023-03-05T07:54:57;1.90;21.70
39401;DHT22;54391;50.000;7.360;2023-03-05T07:57:24;1.90;22.40
39401;DHT22;54391;50.000;7.360;2023-03-05T07:59:51;1.90;23.60
39401;DHT22;54391;50.000;7.360;2023-03-05T08:02:18;1.90;23.80
39401;DHT22;54391;50.000;7.360;2023-03-05T08:04:47;1.90;21.80
39401;DHT22;54391;50.000;7.360;2023-03-05T08:07:15;2.00;21.60
39401;DHT22;54391;50.000;7.360;2023-03-05T08:09:42;2.00;22.60
39401;DHT22;54391;50.000;7.360;2023-03-05T08:12:09;2.00;22.50
39401;DHT22;54391;50.000;7.360;2023-03-05T08:14:36;2.00;22.10
39401;DHT22;54391;50.000;7.360;2023-03-05T08:17:04;2.00;20.30
39401;DHT22;54391;50.000;7.360;2023-03-05T08:19:31;1.90;21.40
39401;DHT22;54391;50.000;7.360;2023-03-05T08:22:00;1.90;22.10
39401;DHT22;54391;50.000;7.360;2023-03-05T08:24:28;1.90;22.40
39401;DHT22;54391;50.000;7.360;2023-03-05T08:26:56;1.90;22.30
39401;DHT22;54391;50.000;7.360;2023-03-05T08:29:23;1.90;22.60
39401;DHT22;54391;50.000;7.360;2023-03-05T08:31:51;1.90;23.20
39401;DHT22;54391;50.000;7.360;2023-03-05T08:34:19;2.00;22.30
39401;DHT22;54391;50.000;7.360;2023-03-05T08:36:46;2.10;22.70
39401;DHT22;54391;50.000;7.360;2023-03-05T08:39:15;2.00;23.00
39401;DHT22;54391;50.000;7.360;2023-03-05T08:41:42;2.00;23.60
39401;DHT22;54391;50.000;7.360;2023-03-05T08:44:10;1.90;24.50
39401;DHT22;54391;50.000;7.360;2023-03-05T08:46:38;1.90;25.80
39401;DHT22;54391;50.000;7.360;2023-03-05T08:49:05;1.80;26.40
39401;DHT22;54391;50.000;7.360;2023-03-05T08:51:33;1.80;26.90
39401;DHT22;54391;50.000;7.360;2023-03-05T08:54:00;1.80;28.00
39401;DHT22;54391;50.000;7.360;2023-03-05T08:56:33;1.70;26.60
39401;DHT22;54391;50.000;7.360;2023-03-05T08:59:04;1.80;27.00
39401;DHT22;54391;50.000;7.360;2023-03-05T09:01:31;1.80;27.60
39401;DHT22;54391;50.000;7.360;2023-03-05T09:03:59;1.90;27.70
39401;DHT22;54391;50.000;7.360;2023-03-05T09:06:28;1.90;27.60
39401;DHT22;54391;50.000;7.360;2023-03-05T09:08:55;2.10;27.20
39401;DHT22;54391;50.000;7.360;2023-03-05T09:11:22;2.10;26.90
39401;DHT22;54391;50.000;7.360;2023-03-05T09:13:50;2.10;26.10
39401;DHT22;54391;50.000;7.360;2023-03-05T09:16:19;2.00;27.20
39401;DHT22;54391;50.000;7.360;2023-03-05T09:18:46;1.90;27.70
39401;DHT22;54391;50.000;7.360;2023-03-05T09:21:15;1.90;28.10
39401;DHT22;54391;50.000;7.360;2023-03-05T09:23:43;1.90;28.20
39401;DHT22;54391;50.000;7.360;2023-03-05T09:26:12;1.80;28.90
39401;DHT22;54391;50.000;7.360;2023-03-05T09:28:41;1.90;29.00
39401;DHT22;54391;50.000;7.360;2023-03-05T09:31:10;2.00;28.30
39401;DHT22;54391;50.000;7.360;2023-03-05T09:33:38;2.00;29.00
39401;DHT22;54391;50.000;7.360;2023-03-05T09:36:15;2.10;28.10
39401;DHT22;54391;50.000;7.360;2023-03-05T09:38:43;2.20;28.60
39401;DHT22;54391;50.000;7.360;2023-03-05T09:41:16;2.20;27.60
39401;DHT22;54391;50.000;7.360;2023-03-05T09:43:52;2.30;27.80
39401;DHT22;54391;50.000;7.360;2023-03-05T09:46:30;2.30;27.80
39401;DHT22;54391;50.000;7.360;2023-03-05T09:49:09;2.30;28.60
39401;DHT22;54391;50.000;7.360;2023-03-05T09:51:41;2.30;29.10
39401;DHT22;54391;50.000;7.360;2023-03-05T09:54:16;2.30;29.30
39401;DHT22;54391;50.000;7.360;2023-03-05T09:56:46;2.40;28.70
39401;DHT22;54391;50.000;7.360;2023-03-05T09:59:27;2.20;28.60
39401;DHT22;54391;50.000;7.360;2023-03-05T10:02:09;2.20;29.00
39401;DHT22;54391;50.000;7.360;2023-03-05T10:04:42;2.20;30.90
39401;DHT22;54391;50.000;7.360;2023-03-05T10:07:16;2.30;30.90
39401;DHT22;54391;50.000;7.360;2023-03-05T10:09:47;2.30;29.80
39401;DHT22;54391;50.000;7.360;2023-03-05T10:12:24;2.30;30.30
39401;DHT22;54391;50.000;7.360;2023-03-05T10:14:53;2.40;30.20
39401;DHT22;54391;50.000;7.360;2023-03-05T10:17:40;2.30;30.90
39401;DHT22;54391;50.000;7.360;2023-03-05T10:20:37;2.40;30.30
39401;DHT22;54391;50.000;7.360;2023-03-05T10:26:19;2.40;30.50
39401;DHT22;54391;50.000;7.360;2023-03-05T10:28:56;2.30;31.90
39401;DHT22;54391;50.000;7.360;2023-03-05T10:31:41;2.20;32.20
39401;DHT22;54391;50.000;7.360;2023-03-05T10:34:31;2.20;35.00
39401;DHT22;54391;50.000;7.360;2023-03-05T10:39:58;1.90;37.20
39401;DHT22;54391;50.000;7.360;2023-03-05T10:42:34;1.80;40.30
39401;DHT22;54391;50.000;7.360;2023-03-05T10:45:13;1.60;40.30
39401;DHT22;54391;50.000;7.360;2023-03-05T10:47:44;1.90;43.40
39401;DHT22;54391;50.000;7.360;2023-03-05T10:50:18;2.00;42.20
39401;DHT22;54391;50.000;7.360;2023-03-05T10:52:51;2.00;42.80
39401;DHT22;54391;50.000;7.360;2023-03-05T10:55:20;2.10;40.20
39401;DHT22;54391;50.000;7.360;2023-03-05T10:57:48;2.20;38.50
39401;DHT22;54391;50.000;7.360;2023-03-05T11:00:18;2.10;34.90
39401;DHT22;54391;50.000;7.360;2023-03-05T11:02:54;2.10;34.60
39401;DHT22;54391;50.000;7.360;2023-03-05T11:05:50;2.10;32.50
39401;DHT22;54391;50.000;7.360;2023-03-05T11:08:28;2.20;33.70
39401;DHT22;54391;50.000;7.360;2023-03-05T11:11:15;2.30;31.90
39401;DHT22;54391;50.000;7.360;2023-03-05T11:13:54;2.20;31.00
39401;DHT22;54391;50.000;7.360;2023-03-05T11:16:24;2.20;29.90
39401;DHT22;54391;50.000;7.360;2023-03-05T11:19:17;2.30;30.30
39401;DHT22;54391;50.000;7.360;2023-03-05T11:22:03;2.40;30.60
39401;DHT22;54391;50.000;7.360;2023-03-05T11:24:31;2.30;26.90
39401;DHT22;54391;50.000;7.360;2023-03-05T11:26:58;2.30;28.30
39401;DHT22;54391;50.000;7.360;2023-03-05T11:29:29;2.30;26.00
39401;DHT22;54391;50.000;7.360;2023-03-05T11:32:15;2.30;27.40
39401;DHT22;54391;50.000;7.360;2023-03-05T11:34:42;2.40;28.10
39401;DHT22;54391;50.000;7.360;2023-03-05T11:37:21;2.60;27.10
39401;DHT22;54391;50.000;7.360;2023-03-05T11:40:04;2.70;26.10
39401;DHT22;54391;50.000;7.360;2023-03-05T11:42:40;2.70;26.50
39401;DHT22;54391;50.000;7.360;2023-03-05T11:45:15;2.80;27.70
39401;DHT22;54391;50.000;7.360;2023-03-05T11:47:45;2.90;26.80
39401;DHT22;54391;50.000;7.360;2023-03-05T11:50:19;3.20;23.10
39401;DHT22;54391;50.000;7.360;2023-03-05T11:52:50;3.20;21.80
39401;DHT22;54391;50.000;7.360;2023-03-05T11:55:18;3.30;21.60
39401;DHT22;54391;50.000;7.360;2023-03-05T11:57:51;3.30;19.90
39401;DHT22;54391;50.000;7.360;2023-03-05T12:00:26;3.10;20.70
39401;DHT22;54391;50.000;7.360;2023-03-05T12:02:55;3.30;20.50
39401;DHT22;54391;50.000;7.360;2023-03-05T12:05:23;3.40;19.60
39401;DHT22;54391;50.000;7.360;2023-03-05T12:07:55;3.50;17.10
39401;DHT22;54391;50.000;7.360;2023-03-05T12:10:25;3.80;16.20
39401;DHT22;54391;50.000;7.360;2023-03-05T12:12:57;3.90;15.70
39401;DHT22;54391;50.000;7.360;2023-03-05T12:15:37;3.60;14.90
39401;DHT22;54391;50.000;7.360;2023-03-05T12:18:14;3.80;14.10
39401;DHT22;54391;50.000;7.360;2023-03-05T12:20:46;3.50;12.80
39401;DHT22;54391;50.000;7.360;2023-03-05T12:23:19;1.70;13.40
39401;DHT22;54391;50.000;7.360;2023-03-05T12:25:48;3.60;13.30
39401;DHT22;54391;50.000;7.360;2023-03-05T12:28:52;3.70;14.20
39401;DHT22;54391;50.000;7.360;2023-03-05T12:31:05;3.80;13.00
39401;DHT22;54391;50.000;7.360;2023-03-05T12:36:36;3.70;11.50
39401;DHT22;54391;50.000;7.360;2023-03-05T12:42:45;3.70;11.80
39401;DHT22;54391;50.000;7.360;2023-03-05T12:45:33;3.70;8.90
39401;DHT22;54391;50.000;7.360;2023-03-05T12:56:02;3.80;10.30
39401;DHT22;54391;50.000;7.360;2023-03-05T12:58:42;3.70;10.70
39401;DHT22;54391;50.000;7.360;2023-03-05T13:01:30;3.70;10.60
39401;DHT22;54391;50.000;7.360;2023-03-05T13:04:02;3.60;10.00
39401;DHT22;54391;50.000;7.360;2023-03-05T13:06:36;3.60;11.20
39401;DHT22;54391;50.000;7.360;2023-03-05T13:09:12;3.60;11.50
39401;DHT22;54391;50.000;7.360;2023-03-05T13:11:43;3.60;10.30
39401;DHT22;54391;50.000;7.360;2023-03-05T13:14:32;3.50;10.70
39401;DHT22;54391;50.000;7.360;2023-03-05T13:19:28;3.60;11.50
39401;DHT22;54391;50.000;7.360;2023-03-05T13:21:58;3.70;11.20
39401;DHT22;54391;50.000;7.360;2023-03-05T13:29:24;3.50;9.20
39401;DHT22;54391;50.000;7.360;2023-03-05T13:31:57;3.40;9.00
39401;DHT22;54391;50.000;7.360;2023-03-05T13:34:26;3.50;8.10
39401;DHT22;54391;50.000;7.360;2023-03-05T13:36:56;4.70;8.70
39401;DHT22;54391;50.000;7.360;2023-03-05T13:39:27;3.50;8.60
39401;DHT22;54391;50.000;7.360;2023-03-05T13:42:01;3.50;9.10
39401;DHT22;54391;50.000;7.360;2023-03-05T13:44:30;3.50;9.20
39401;DHT22;54391;50.000;7.360;2023-03-05T13:47:14;3.50;8.90
39401;DHT22;54391;50.000;7.360;2023-03-05T13:49:42;3.60;8.70
39401;DHT22;54391;50.000;7.360;2023-03-05T13:52:10;3.60;8.80
39401;DHT22;54391;50.000;7.360;2023-03-05T13:54:40;3.70;9.10
39401;DHT22;54391;50.000;7.360;2023-03-05T13:57:32;3.60;7.20
39401;DHT22;54391;50.000;7.360;2023-03-05T13:59:59;3.50;7.90
39401;DHT22;54391;50.000;7.360;2023-03-05T14:02:29;3.50;7.60
39401;DHT22;54391;50.000;7.360;2023-03-05T14:04:57;3.50;8.40
39401;DHT22;54391;50.000;7.360;2023-03-05T14:07:31;3.50;8.50
39401;DHT22;54391;50.000;7.360;2023-03-05T14:09:59;3.50;8.30
39401;DHT22;54391;50.000;7.360;2023-03-05T14:12:32;3.50;8.80
39401;DHT22;54391;50.000;7.360;2023-03-05T14:15:00;3.40;9.10
39401;DHT22;54391;50.000;7.360;2023-03-05T14:17:36;3.40;9.40
39401;DHT22;54391;50.000;7.360;2023-03-05T14:20:16;3.20;9.00
39401;DHT22;54391;50.000;7.360;2023-03-05T14:22:47;3.20;9.60
39401;DHT22;54391;50.000;7.360;2023-03-05T14:25:38;3.30;9.70
39401;DHT22;54391;50.000;7.360;2023-03-05T14:30:51;3.20;9.40
39401;DHT22;54391;50.000;7.360;2023-03-05T14:33:22;3.20;9.30
39401;DHT22;54391;50.000;7.360;2023-03-05T14:35:51;3.30;10.00
39401;DHT22;54391;50.000;7.360;2023-03-05T14:38:22;3.30;9.60
39401;DHT22;54391;50.000;7.360;2023-03-05T14:40:49;3.20;8.80
39401;DHT22;54391;50.000;7.360;2023-03-05T14:43:16;3.20;9.50
39401;DHT22;54391;50.000;7.360;2023-03-05T14:45:44;3.30;9.50
39401;DHT22;54391;50.000;7.360;2023-03-05T14:48:12;3.40;8.90
39401;DHT22;54391;50.000;7.360;2023-03-05T14:50:44;5.10;9.50
39401;DHT22;54391;50.000;7.360;2023-03-05T14:53:15;3.50;9.10
39401;DHT22;54391;50.000;7.360;2023-03-05T14:55:44;3.70;8.70
39401;DHT22;54391;50.000;7.360;2023-03-05T14:58:17;3.60;8.00
39401;DHT22;54391;50.000;7.360;2023-03-05T15:00:46;3.70;7.50
39401;DHT22;54391;50.000;7.360;2023-03-05T15:03:15;3.70;7.90
39401;DHT22;54391;50.000;7.360;2023-03-05T15:05:46;3.60;7.80
39401;DHT22;54391;50.000;7.360;2023-03-05T15:08:17;3.50;8.30
39401;DHT22;54391;50.000;7.360;2023-03-05T15:10:46;3.60;8.00
39401;DHT22;54391;50.000;7.360;2023-03-05T15:13:14;3.60;8.50
39401;DHT22;54391;50.000;7.360;2023-03-05T15:15:42;3.70;8.70
39401;DHT22;54391;50.000;7.360;2023-03-05T15:18:11;3.70;8.30
39401;DHT22;54391;50.000;7.360;2023-03-05T15:20:38;3.70;7.60
39401;DHT22;54391;50.000;7.360;2023-03-05T15:23:07;3.70;8.00
39401;DHT22;54391;50.000;7.360;2023-03-05T15:25:34;3.60;8.00
39401;DHT22;54391;50.000;7.360;2023-03-05T15:28:01;3.50;8.90
39401;DHT22;54391;50.000;7.360;2023-03-05T15:30:30;3.40;8.00
39401;DHT22;54391;50.000;7.360;2023-03-05T15:33:00;3.50;8.60
39401;DHT22;54391;50.000;7.360;2023-03-05T15:35:27;3.50;9.60
39401;DHT22;54391;50.000;7.360;2023-03-05T15:37:55;3.40;8.90
39401;DHT22;54391;50.000;7.360;2023-03-05T15:40:24;3.40;8.90
39401;DHT22;54391;50.000;7.360;2023-03-05T15:42:52;3.40;9.50
39401;DHT22;54391;50.000;7.360;2023-03-05T15:45:19;3.40;9.20
39401;DHT22;54391;50.000;7.360;2023-03-05T15:47:47;3.40;9.50
39401;DHT22;54391;50.000;7.360;2023-03-05T15:50:15;3.30;8.80
39401;DHT22;54391;50.000;7.360;2023-03-05T15:52:42;3.20;9.80
39401;DHT22;54391;50.000;7.360;2023-03-05T15:55:10;3.30;9.30
39401;DHT22;54391;50.000;7.360;2023-03-05T15:57:43;3.30;9.60
39401;DHT22;54391;50.000;7.360;2023-03-05T16:00:12;3.40;9.30
39401;DHT22;54391;50.000;7.360;2023-03-05T16:02:39;3.40;9.90
39401;DHT22;54391;50.000;7.360;2023-03-05T16:05:08;3.30;9.80
39401;DHT22;54391;50.000;7.360;2023-03-05T16:07:37;3.40;10.20
39401;DHT22;54391;50.000;7.360;2023-03-05T16:10:05;3.30;9.30
39401;DHT22;54391;50.000;7.360;2023-03-05T16:12:35;5.50;10.50
39401;DHT22;54391;50.000;7.360;2023-03-05T16:15:09;3.30;9.30
39401;DHT22;54391;50.000;7.360;2023-03-05T16:17:37;3.30;9.90
39401;DHT22;54391;50.000;7.360;2023-03-05T16:20:07;3.30;9.80
39401;DHT22;54391;50.000;7.360;2023-03-05T16:22:34;3.30;10.10
39401;DHT22;54391;50.000;7.360;2023-03-05T16:25:01;3.30;10.50
39401;DHT22;54391;50.000;7.360;2023-03-05T16:27:28;3.20;10.30
39401;DHT22;54391;50.000;7.360;2023-03-05T16:29:56;3.20;9.90
39401;DHT22;54391;50.000;7.360;2023-03-05T16:32:24;3.30;10.40
39401;DHT22;54391;50.000;7.360;2023-03-05T16:34:52;3.20;10.20
39401;DHT22;54391;50.000;7.360;2023-03-05T16:37:20;3.20;10.70
39401;DHT22;54391;50.000;7.360;2023-03-05T16:39:47;3.20;10.60
39401;DHT22;54391;50.000;7.360;2023-03-05T16:42:15;3.20;11.20
39401;DHT22;54391;50.000;7.360;2023-03-05T16:44:43;3.10;10.90
39401;DHT22;54391;50.000;7.360;2023-03-05T16:47:10;3.10;11.20
39401;DHT22;54391;50.000;7.360;2023-03-05T16:49:39;3.10;10.80
39401;DHT22;54391;50.000;7.360;2023-03-05T16:52:06;3.10;12.10
39401;DHT22;54391;50.000;7.360;2023-03-05T16:54:36;3.00;11.00
39401;DHT22;54391;50.000;7.360;2023-03-05T16:57:06;2.90;11.70
39401;DHT22;54391;50.000;7.360;2023-03-05T16:59:34;2.90;11.60
39401;DHT22;54391;50.000;7.360;2023-03-05T17:02:01;2.90;12.10
39401;DHT22;54391;50.000;7.360;2023-03-05T17:04:29;2.90;12.40
39401;DHT22;54391;50.000;7.360;2023-03-05T17:06:57;2.90;12.30
39401;DHT22;54391;50.000;7.360;2023-03-05T17:09:24;2.80;12.50